createdAt,value
2022-08-09T00:00:19.758Z,4.10
2022-08-09T00:02:51.511Z,5.10
2022-08-09T00:06:19.876Z,4.60
2022-08-09T00:08:31.845Z,4.25
2022-08-09T00:11:05.995Z,3.80
2022-08-09T00:13:53.163Z,4.03
2022-08-09T00:16:26.143Z,4.15
2022-08-09T00:19:10.169Z,4.10
2022-08-09T00:21:55.675Z,5.65
2022-08-09T00:24:28.170Z,4.22
2022-08-09T00:26:59.858Z,7.30
2022-08-09T00:30:09.751Z,5.35
2022-08-09T00:32:35.736Z,5.43
2022-08-09T00:35:05.671Z,6.03
2022-08-09T00:37:36.591Z,5.90
2022-08-09T00:40:13.629Z,6.10
2022-08-09T00:44:16.636Z,6.00
2022-08-09T00:45:38.475Z,4.82
2022-08-09T00:48:22.783Z,4.63
2022-08-09T00:50:52.585Z,4.90
2022-08-09T00:53:24.086Z,4.45
2022-08-09T00:56:04.642Z,5.18
2022-08-09T00:58:36.986Z,6.35
2022-08-09T01:01:16.064Z,5.47
2022-08-09T01:03:52.149Z,6.28
2022-08-09T01:06:35.198Z,4.68
2022-08-09T01:09:26.333Z,5.30
2022-08-09T01:12:09.799Z,4.22
2022-08-09T01:14:48.074Z,5.78
2022-08-09T01:17:25.997Z,4.32
2022-08-09T01:20:03.357Z,5.15
2022-08-09T01:22:54.683Z,7.13
2022-08-09T01:25:48.789Z,5.72
2022-08-09T01:28:22.643Z,7.80
2022-08-09T01:30:59.062Z,4.35
2022-08-09T01:33:39.730Z,6.80
2022-08-09T01:36:11.001Z,5.43
2022-08-09T01:38:46.578Z,5.15
2022-08-09T01:41:17.856Z,6.05
2022-08-09T01:43:52.777Z,4.95
2022-08-09T01:46:26.483Z,5.40
2022-08-09T01:48:59.835Z,5.03
2022-08-09T01:51:32.976Z,8.65
2022-08-09T01:54:04.194Z,7.68
2022-08-09T01:56:38.208Z,5.40
2022-08-09T01:59:11.411Z,6.82
2022-08-09T02:02:00.359Z,5.47
2022-08-09T02:04:31.981Z,6.00
2022-08-09T02:07:17.803Z,7.20
2022-08-09T02:10:06.587Z,6.13
2022-08-09T02:12:37.452Z,5.88
2022-08-09T02:15:15.475Z,7.63
2022-08-09T02:18:00.292Z,5.95
2022-08-09T02:20:41.272Z,5.60
2022-08-09T02:23:17.631Z,6.00
2022-08-09T02:25:52.598Z,5.47
2022-08-09T02:28:24.050Z,5.32
2022-08-09T02:30:57.380Z,6.80
2022-08-09T02:33:38.170Z,4.97
2022-08-09T02:36:21.144Z,6.03
2022-08-09T02:38:53.145Z,4.65
2022-08-09T02:43:54.251Z,8.85
2022-08-09T02:46:28.727Z,5.80
2022-08-09T02:49:01.150Z,4.30
2022-08-09T02:51:40.287Z,5.32
2022-08-09T02:54:13.978Z,8.07
2022-08-09T02:56:51.177Z,4.95
2022-08-09T02:59:26.213Z,4.05
2022-08-09T03:02:11.884Z,5.43
2022-08-09T03:04:42.731Z,4.60
2022-08-09T03:07:14.527Z,5.43
2022-08-09T03:09:56.326Z,7.15
2022-08-09T03:12:26.465Z,5.97
2022-08-09T03:14:58.534Z,4.47
2022-08-09T03:17:30.614Z,5.60
2022-08-09T03:20:11.056Z,4.93
2022-08-09T03:22:56.838Z,5.45
2022-08-09T03:25:58.562Z,5.28
2022-08-09T03:28:17.381Z,5.25
2022-08-09T03:30:48.969Z,5.95
2022-08-09T03:33:21.013Z,5.55
2022-08-09T03:36:12.282Z,5.18
2022-08-09T03:38:44.615Z,4.47
2022-08-09T03:41:16.412Z,4.18
2022-08-09T03:44:03.341Z,4.10
2022-08-09T03:46:37.290Z,3.72
2022-08-09T03:49:11.060Z,5.65
2022-08-09T03:51:55.855Z,3.30
2022-08-09T03:54:31.384Z,6.22
2022-08-09T03:57:18.429Z,4.05
2022-08-09T03:59:53.553Z,6.68
2022-08-09T04:02:28.478Z,4.45
2022-08-09T04:05:01.359Z,5.38
2022-08-09T04:07:53.028Z,8.10
2022-08-09T04:10:29.195Z,4.97
2022-08-09T04:13:04.133Z,5.10
2022-08-09T04:16:17.143Z,4.65
2022-08-09T04:18:24.897Z,6.28
2022-08-09T04:20:56.067Z,5.97
2022-08-09T04:23:27.884Z,6.18
2022-08-09T04:25:58.631Z,5.43
2022-08-09T04:28:33.711Z,6.18
2022-08-09T04:31:08.160Z,4.10
2022-08-09T04:33:52.552Z,5.72
2022-08-09T04:36:28.787Z,8.25
2022-08-09T04:39:00.881Z,6.35
2022-08-09T04:41:32.264Z,6.72
2022-08-09T04:44:07.176Z,4.03
2022-08-09T04:46:58.909Z,4.68
2022-08-09T04:49:53.148Z,4.90
2022-08-09T04:52:27.549Z,5.97
2022-08-09T04:54:57.747Z,4.15
2022-08-09T04:57:59.258Z,6.65
2022-08-09T05:00:18.587Z,4.55
2022-08-09T05:02:48.766Z,5.10
2022-08-09T05:05:32.197Z,5.93
2022-08-09T05:08:15.132Z,6.53
2022-08-09T05:10:44.951Z,4.78
2022-08-09T05:13:15.026Z,7.20
2022-08-09T05:15:52.275Z,5.63
2022-08-09T05:18:37.736Z,5.20
2022-08-09T05:21:23.234Z,4.65
2022-08-09T05:24:00.982Z,4.80
2022-08-09T05:26:36.014Z,3.47
2022-08-09T05:29:21.854Z,7.30
2022-08-09T05:31:56.720Z,4.45
2022-08-09T05:34:30.631Z,7.72
2022-08-09T05:37:06.261Z,4.80
2022-08-09T05:39:42.636Z,6.43
2022-08-09T05:42:17.361Z,5.25
2022-08-09T05:44:54.225Z,4.30
2022-08-09T05:47:27.144Z,7.88
2022-08-09T05:50:32.343Z,7.13
2022-08-09T05:52:53.649Z,4.03
2022-08-09T05:55:25.173Z,4.13
2022-08-09T05:57:58.429Z,4.35
2022-08-09T06:00:29.703Z,6.60
2022-08-09T06:02:59.907Z,6.30
2022-08-09T06:05:56.904Z,6.50
2022-08-09T06:08:24.804Z,7.13
2022-08-09T06:10:57.015Z,11.35
2022-08-09T06:13:34.106Z,9.63
2022-08-09T06:16:05.257Z,16.17
2022-08-09T06:18:35.114Z,10.00
2022-08-09T06:21:06.610Z,12.27
2022-08-09T06:23:57.715Z,14.52
2022-08-09T06:26:28.560Z,16.83
2022-08-09T06:29:03.870Z,14.23
2022-08-09T06:31:39.996Z,14.88
2022-08-09T06:34:26.021Z,14.70
2022-08-09T06:36:59.199Z,15.15
2022-08-09T06:39:57.777Z,16.45
2022-08-09T06:42:24.773Z,16.25
2022-08-09T06:44:58.661Z,15.73
2022-08-09T06:47:29.990Z,17.40
2022-08-09T06:50:14.002Z,14.25
2022-08-09T06:52:48.550Z,16.20
2022-08-09T06:55:22.900Z,17.25
2022-08-09T06:58:02.661Z,12.38
2022-08-09T07:00:52.583Z,14.45
2022-08-09T07:03:27.960Z,16.83
2022-08-09T07:06:04.194Z,14.82
2022-08-09T07:08:35.271Z,16.83
2022-08-09T07:11:07.089Z,16.40
2022-08-09T07:13:45.315Z,15.57
2022-08-09T07:16:39.325Z,16.63
2022-08-09T07:19:15.776Z,18.60
2022-08-09T07:21:57.020Z,16.88
2022-08-09T07:24:32.357Z,12.95
2022-08-09T07:27:11.019Z,18.27
2022-08-09T07:30:00.575Z,20.77
2022-08-09T07:32:32.303Z,18.20
2022-08-09T07:35:03.800Z,16.02
2022-08-09T07:37:44.126Z,15.63
2022-08-09T07:40:17.665Z,17.42
2022-08-09T07:42:55.621Z,17.15
2022-08-09T07:45:39.372Z,14.25
2022-08-09T07:48:28.530Z,16.60
2022-08-09T07:51:10.262Z,18.75
2022-08-09T07:54:04.936Z,15.98
2022-08-09T07:56:44.887Z,11.32
2022-08-09T07:59:34.063Z,11.93
2022-08-09T08:02:19.410Z,14.23
2022-08-09T08:04:53.597Z,17.02
2022-08-09T08:08:06.208Z,9.35
2022-08-09T08:10:13.178Z,11.45
2022-08-09T08:12:45.515Z,11.50
2022-08-09T08:15:17.308Z,9.40
2022-08-09T08:17:53.314Z,10.27
2022-08-09T08:20:30.458Z,7.55
2022-08-09T08:23:16.410Z,8.40
2022-08-09T08:25:49.847Z,7.95
2022-08-09T08:28:32.401Z,8.32
2022-08-09T08:31:13.663Z,7.97
2022-08-09T08:33:53.811Z,8.88
2022-08-09T08:36:29.825Z,6.72
2022-08-09T08:39:00.440Z,10.07
2022-08-09T08:41:51.474Z,9.68
2022-08-09T08:44:26.997Z,7.05
2022-08-09T08:47:05.176Z,8.10
2022-08-09T08:49:48.534Z,12.40
2022-08-09T08:52:52.954Z,6.93
2022-08-09T08:55:09.676Z,8.38
2022-08-09T08:57:38.934Z,8.70
2022-08-09T09:00:17.154Z,7.15
2022-08-09T09:05:58.931Z,6.10
2022-08-09T09:08:29.341Z,5.10
2022-08-09T09:11:05.897Z,5.88
2022-08-09T09:13:47.318Z,6.13
2022-08-09T09:16:32.434Z,7.80
2022-08-09T09:22:00.554Z,4.35
2022-08-09T09:24:30.513Z,4.45
2022-08-09T09:27:02.883Z,6.88
2022-08-09T09:30:05.308Z,4.35
2022-08-09T09:32:34.309Z,5.07
2022-08-09T09:35:09.132Z,7.60
2022-08-09T09:37:41.012Z,6.70
2022-08-09T09:40:11.833Z,5.00
2022-08-09T09:42:42.806Z,6.00
2022-08-09T09:45:26.455Z,6.38
2022-08-09T09:47:59.246Z,3.92
2022-08-09T09:50:49.800Z,5.28
2022-08-09T09:53:34.436Z,3.90
2022-08-09T09:56:30.836Z,2.53
2022-08-09T09:59:00.789Z,5.10
2022-08-09T10:01:38.032Z,5.25
2022-08-09T10:04:16.337Z,3.67
2022-08-09T10:06:54.275Z,2.78
2022-08-09T10:09:25.175Z,2.75
2022-08-09T10:12:14.423Z,5.63
2022-08-09T10:14:50.030Z,3.75
2022-08-09T10:17:50.586Z,5.32
2022-08-09T10:20:27.330Z,3.30
2022-08-09T10:23:17.307Z,2.65
2022-08-09T10:26:07.297Z,2.03
2022-08-09T10:28:40.838Z,4.07
2022-08-09T10:34:11.033Z,2.30
2022-08-09T10:36:56.768Z,6.03
2022-08-09T10:39:40.995Z,3.85
2022-08-09T10:42:19.814Z,1.50
2022-08-09T10:44:50.213Z,2.72
2022-08-09T10:48:22.598Z,2.38
2022-08-09T10:50:31.232Z,3.33
2022-08-09T10:53:10.171Z,3.17
2022-08-09T10:55:58.715Z,2.38
2022-08-09T10:58:37.082Z,1.85
2022-08-09T11:03:02.462Z,1.55
2022-08-09T11:04:19.760Z,2.17
2022-08-09T11:07:17.925Z,4.07
2022-08-09T11:09:52.964Z,3.03
2022-08-09T11:12:29.922Z,2.65
2022-08-09T11:15:03.350Z,1.75
2022-08-09T11:17:53.458Z,3.22
2022-08-09T11:20:37.953Z,4.55
2022-08-09T11:23:10.395Z,3.72
2022-08-09T11:25:48.664Z,3.17
2022-08-09T11:28:38.365Z,3.75
2022-08-09T11:31:49.105Z,4.20
2022-08-09T11:34:24.935Z,5.00
2022-08-09T11:36:55.124Z,6.78
2022-08-09T11:39:37.900Z,2.28
2022-08-09T11:42:14.810Z,2.22
2022-08-09T11:44:49.157Z,2.42
2022-08-09T11:47:18.602Z,4.18
2022-08-09T11:50:54.186Z,4.57
2022-08-09T11:53:20.792Z,2.28
2022-08-09T11:56:23.077Z,5.32
2022-08-09T11:59:12.282Z,5.18
2022-08-09T12:02:34.845Z,2.83
2022-08-09T12:04:37.242Z,1.60
2022-08-09T12:07:08.925Z,4.25
2022-08-09T12:09:38.415Z,2.83
2022-08-09T12:12:13.212Z,4.10
2022-08-09T12:15:08.082Z,5.38
2022-08-09T12:17:44.526Z,1.85
2022-08-09T12:20:16.257Z,2.13
2022-08-09T12:22:50.895Z,1.80
2022-08-09T12:25:36.817Z,2.38
2022-08-09T12:29:12.695Z,3.10
2022-08-09T12:31:01.274Z,3.88
2022-08-09T12:33:35.566Z,5.40
2022-08-09T12:36:31.141Z,2.00
2022-08-09T12:39:04.434Z,2.00
2022-08-09T12:44:10.110Z,3.92
2022-08-09T12:46:49.192Z,2.42
2022-08-09T12:49:24.365Z,2.40
2022-08-09T12:52:01.990Z,3.17
2022-08-09T12:55:00.764Z,1.42
2022-08-09T12:57:39.960Z,6.28
2022-08-09T13:00:13.538Z,4.18
2022-08-09T13:02:54.452Z,2.25
2022-08-09T13:05:25.309Z,2.00
2022-08-09T13:08:14.471Z,8.25
2022-08-09T13:10:52.227Z,3.70
2022-08-09T13:13:38.318Z,1.40
2022-08-09T13:16:20.227Z,5.03
2022-08-09T13:18:54.017Z,4.00
2022-08-09T13:22:35.196Z,5.18
2022-08-09T13:24:52.562Z,2.97
2022-08-09T13:27:06.057Z,3.55
2022-08-09T13:30:02.761Z,2.33
2022-08-09T13:32:46.053Z,5.05
2022-08-09T13:35:21.169Z,1.55
2022-08-09T13:38:03.680Z,1.70
2022-08-09T13:41:50.735Z,2.92
2022-08-09T13:43:38.875Z,3.53
2022-08-09T13:47:17.834Z,2.17
2022-08-09T13:48:59.862Z,3.53
2022-08-09T13:51:30.679Z,3.45
2022-08-09T13:54:00.198Z,3.50
2022-08-09T13:56:30.220Z,3.13
2022-08-09T13:59:01.063Z,3.97
2022-08-09T14:01:56.763Z,2.28
2022-08-09T14:04:23.979Z,3.08
2022-08-09T14:06:56.673Z,4.60
2022-08-09T14:09:26.596Z,2.67
2022-08-09T14:11:57.235Z,5.13
2022-08-09T14:14:33.290Z,1.92
2022-08-09T14:17:06.304Z,5.03
2022-08-09T14:19:41.226Z,4.32
2022-08-09T14:22:12.035Z,1.45
2022-08-09T14:24:52.017Z,4.82
2022-08-09T14:30:36.360Z,4.10
2022-08-09T14:32:46.495Z,3.85
2022-08-09T14:35:16.289Z,3.73
2022-08-09T14:38:02.799Z,3.67
2022-08-09T14:40:39.021Z,4.95
2022-08-09T14:43:23.782Z,3.83
2022-08-09T14:46:58.523Z,3.50
2022-08-09T14:48:45.437Z,2.10
2022-08-09T14:53:48.679Z,2.15
2022-08-09T14:56:22.045Z,3.08
2022-08-09T14:58:56.490Z,2.58
2022-08-09T15:01:30.131Z,1.70
2022-08-09T15:04:01.390Z,2.13
2022-08-09T15:06:31.177Z,2.67
2022-08-09T15:09:03.712Z,3.25
2022-08-09T15:11:34.771Z,3.80
2022-08-09T15:14:12.945Z,3.67
2022-08-09T15:16:43.063Z,1.27
2022-08-09T15:19:16.097Z,3.33
2022-08-09T15:21:57.534Z,4.00
2022-08-09T15:24:31.310Z,3.47
2022-08-09T15:27:01.080Z,2.85
2022-08-09T15:31:00.739Z,0.90
2022-08-09T15:32:29.477Z,3.85
2022-08-09T15:35:17.902Z,2.42
2022-08-09T15:37:56.931Z,2.83
2022-08-09T15:40:37.960Z,4.82
2022-08-09T15:43:14.018Z,2.85
2022-08-09T15:45:52.018Z,2.08
2022-08-09T15:48:37.509Z,4.90
2022-08-09T15:51:30.016Z,4.65
2022-08-09T15:54:05.417Z,4.03
2022-08-09T15:56:37.355Z,2.53
2022-08-09T15:59:09.102Z,3.53
2022-08-09T16:01:39.354Z,1.92
2022-08-09T16:04:13.392Z,1.77
2022-08-09T16:06:50.257Z,2.42
2022-08-09T16:09:32.307Z,1.95
2022-08-09T16:12:11.204Z,3.08
2022-08-09T16:14:41.841Z,1.92
2022-08-09T16:17:11.909Z,3.80
2022-08-09T16:19:49.016Z,5.00
2022-08-09T16:22:35.324Z,5.35
2022-08-09T16:25:04.830Z,2.10
2022-08-09T16:27:36.175Z,1.85
2022-08-09T16:30:07.073Z,1.95
2022-08-09T16:32:54.480Z,2.42
2022-08-09T16:35:56.507Z,3.30
2022-08-09T16:38:18.098Z,1.92
2022-08-09T16:40:48.061Z,5.60
2022-08-09T16:43:18.102Z,3.03
2022-08-09T16:45:48.043Z,1.98
2022-08-09T16:48:40.589Z,2.35
2022-08-09T16:51:14.235Z,4.25
2022-08-09T16:56:36.775Z,3.00
2022-08-09T16:59:12.058Z,5.55
2022-08-09T17:01:42.275Z,2.15
2022-08-09T17:04:28.389Z,2.05
2022-08-09T17:08:41.376Z,3.75
2022-08-09T17:09:50.642Z,3.03
2022-08-09T17:12:20.370Z,3.40
2022-08-09T17:14:55.000Z,1.13
2022-08-09T17:17:27.996Z,4.65
2022-08-09T17:20:28.882Z,5.20
2022-08-09T17:22:52.464Z,4.07
2022-08-09T17:25:23.909Z,2.35
2022-08-09T17:27:54.880Z,4.03
2022-08-09T17:30:26.438Z,4.07
2022-08-09T17:33:01.482Z,4.40
2022-08-09T17:35:41.242Z,4.60
2022-08-09T17:38:32.111Z,3.20
2022-08-09T17:41:05.011Z,3.33
2022-08-09T17:43:37.185Z,2.42
2022-08-09T17:46:09.099Z,3.67
2022-08-09T17:48:52.071Z,2.90
2022-08-09T17:51:23.129Z,4.10
2022-08-09T17:53:55.585Z,2.72
2022-08-09T17:56:28.767Z,2.45
2022-08-09T17:58:59.773Z,2.05
2022-08-09T18:01:58.003Z,1.52
2022-08-09T18:04:21.678Z,4.50
2022-08-09T18:06:55.252Z,3.97
2022-08-09T18:09:41.109Z,4.43
2022-08-09T18:12:19.407Z,2.50
2022-08-09T18:14:55.012Z,1.77
2022-08-09T18:17:27.400Z,2.42
2022-08-09T18:21:00.523Z,2.42
2022-08-09T18:23:07.113Z,1.35
2022-08-09T18:25:50.695Z,2.00
2022-08-09T18:30:39.575Z,3.42
2022-08-09T18:31:24.937Z,2.95
2022-08-09T18:34:06.184Z,4.65
2022-08-09T18:36:36.380Z,5.57
2022-08-09T18:39:06.629Z,1.77
2022-08-09T18:41:36.984Z,3.40
2022-08-09T18:44:15.528Z,5.32
2022-08-09T18:47:04.965Z,2.00
2022-08-09T18:49:41.725Z,2.75
2022-08-09T18:52:13.335Z,2.08
2022-08-09T18:54:52.262Z,5.57
2022-08-09T18:57:23.114Z,0.90
2022-08-09T19:00:01.505Z,1.17
2022-08-09T19:02:33.424Z,6.40
2022-08-09T19:05:19.648Z,1.95
2022-08-09T19:07:59.380Z,5.80
2022-08-09T19:10:37.890Z,2.95
2022-08-09T19:13:22.035Z,3.83
2022-08-09T19:15:56.657Z,4.25
2022-08-09T19:18:33.351Z,3.10
2022-08-09T19:21:09.191Z,5.35
2022-08-09T19:24:33.118Z,4.78
2022-08-09T19:26:35.229Z,4.30
2022-08-09T19:29:15.538Z,2.95
2022-08-09T19:32:00.146Z,5.25
2022-08-09T19:34:29.483Z,1.58
2022-08-09T19:36:58.961Z,2.50
2022-08-09T19:40:02.667Z,3.13
2022-08-09T19:42:19.502Z,4.65
2022-08-09T19:44:51.278Z,3.58
2022-08-09T19:47:23.883Z,4.05
2022-08-09T19:50:06.876Z,4.57
2022-08-09T19:52:51.986Z,4.78
2022-08-09T19:55:30.418Z,4.68
2022-08-09T19:58:16.713Z,4.18
2022-08-09T20:00:47.441Z,2.88
2022-08-09T20:04:17.128Z,5.07
2022-08-09T20:06:10.533Z,5.22
2022-08-09T20:08:56.967Z,3.60
2022-08-09T20:11:33.955Z,6.80
2022-08-09T20:14:15.620Z,3.78
2022-08-09T20:16:53.801Z,3.13
2022-08-09T20:19:48.965Z,4.57
2022-08-09T20:22:14.839Z,4.05
2022-08-09T20:24:53.722Z,2.28
2022-08-09T20:27:23.614Z,7.80
2022-08-09T20:29:52.834Z,3.88
2022-08-09T20:32:30.562Z,4.50
2022-08-09T20:35:05.686Z,4.50
2022-08-09T20:38:08.688Z,4.72
2022-08-09T20:40:27.202Z,2.88
2022-08-09T20:43:00.366Z,3.33
2022-08-09T20:46:01.508Z,5.18
2022-08-09T20:48:42.681Z,6.10
2022-08-09T20:51:19.367Z,9.05
2022-08-09T20:53:49.230Z,4.38
2022-08-09T20:56:21.819Z,3.22
2022-08-09T20:58:54.590Z,4.82
2022-08-09T21:01:35.419Z,3.53
2022-08-09T21:05:54.350Z,6.95
2022-08-09T21:07:11.597Z,2.85
2022-08-09T21:09:45.674Z,3.80
2022-08-09T21:15:14.894Z,7.00
2022-08-09T21:18:23.135Z,4.82
2022-08-09T21:20:35.511Z,7.25
2022-08-09T21:23:13.012Z,8.98
2022-08-09T21:25:55.318Z,5.25
2022-08-09T21:28:34.513Z,2.75
2022-08-09T21:31:16.162Z,5.35
2022-08-09T21:33:51.544Z,7.22
2022-08-09T21:36:28.667Z,8.77
2022-08-09T21:39:00.637Z,7.25
2022-08-09T21:42:04.221Z,3.70
2022-08-09T21:44:33.068Z,3.28
2022-08-09T21:47:07.439Z,5.20
2022-08-09T21:49:39.142Z,4.68
2022-08-09T21:52:14.834Z,3.25
2022-08-09T21:54:59.499Z,3.60
2022-08-09T21:57:38.585Z,6.85
2022-08-09T22:00:25.361Z,5.13
2022-08-09T22:02:58.138Z,4.03
2022-08-09T22:08:04.720Z,6.97
2022-08-09T22:10:35.471Z,3.58
2022-08-09T22:13:24.789Z,5.65
2022-08-09T22:16:00.823Z,3.67
2022-08-09T22:21:09.241Z,3.22
2022-08-09T22:23:59.576Z,6.15
2022-08-09T22:26:34.919Z,4.43
2022-08-09T22:29:09.098Z,4.90
2022-08-09T22:31:50.344Z,6.32
2022-08-09T22:34:27.048Z,5.97
2022-08-09T22:36:56.814Z,4.82
2022-08-09T22:39:55.780Z,6.20
2022-08-09T22:42:21.530Z,8.82
2022-08-09T22:48:05.124Z,4.13
2022-08-09T22:48:30.108Z,5.05
2022-08-09T22:50:31.719Z,10.82
2022-08-09T22:53:03.595Z,8.60
2022-08-09T22:56:06.205Z,5.35
2022-08-09T22:58:32.817Z,6.95
2022-08-09T23:01:03.327Z,10.25
2022-08-09T23:04:05.469Z,24.90
2022-08-09T23:06:29.862Z,9.88
2022-08-09T23:09:05.732Z,7.15
2022-08-09T23:11:35.178Z,7.82
2022-08-09T23:14:09.765Z,5.47
2022-08-09T23:16:46.226Z,6.63
2022-08-09T23:19:15.700Z,7.05
2022-08-09T23:21:44.985Z,11.07
2022-08-09T23:24:14.313Z,14.32
2022-08-09T23:26:43.468Z,11.50
2022-08-09T23:29:14.554Z,7.30
2022-08-09T23:31:43.948Z,5.78
2022-08-09T23:34:12.920Z,4.90
2022-08-09T23:36:44.040Z,5.22
2022-08-09T23:39:13.498Z,7.43
2022-08-09T23:41:43.071Z,5.50
2022-08-09T23:44:12.173Z,8.27
2022-08-09T23:46:43.297Z,6.45
2022-08-09T23:49:12.677Z,5.88
2022-08-09T23:51:42.200Z,4.78
2022-08-09T23:54:11.617Z,7.63
2022-08-09T23:56:54.105Z,8.60
2022-08-09T23:59:48.681Z,8.05
